createdAt,value
2022-08-28T00:04:18.655Z,17.10
2022-08-28T00:09:21.888Z,17.21
2022-08-28T00:14:26.613Z,17.38
2022-08-28T00:19:29.648Z,17.57
2022-08-28T00:24:34.650Z,17.48
2022-08-28T00:29:38.703Z,17.57
2022-08-28T00:34:41.671Z,17.53
2022-08-28T00:39:45.655Z,17.66
2022-08-28T00:44:48.623Z,17.71
2022-08-28T00:49:54.842Z,17.57
2022-08-28T00:55:03.819Z,17.34
2022-08-28T01:00:13.366Z,17.24
2022-08-28T01:05:17.746Z,17.12
2022-08-28T01:10:23.534Z,17.05
2022-08-28T01:15:32.466Z,17.08
2022-08-28T01:20:38.546Z,16.96
2022-08-28T01:25:43.531Z,16.97
2022-08-28T01:30:48.502Z,16.94
2022-08-28T01:35:52.478Z,16.87
2022-08-28T01:40:58.161Z,16.73
2022-08-28T01:46:04.916Z,16.66
2022-08-28T01:51:08.561Z,16.62
2022-08-28T01:56:15.779Z,16.49
2022-08-28T02:01:22.138Z,16.36
2022-08-28T02:06:25.963Z,16.21
2022-08-28T02:11:33.067Z,16.16
2022-08-28T02:16:36.121Z,16.12
2022-08-28T02:21:39.981Z,16.09
2022-08-28T02:26:45.148Z,15.98
2022-08-28T02:31:48.507Z,15.83
2022-08-28T02:36:52.531Z,15.84
2022-08-28T02:41:55.898Z,15.83
2022-08-28T02:47:00.911Z,15.77
2022-08-28T02:52:04.715Z,15.83
2022-08-28T02:57:08.931Z,15.84
2022-08-28T03:02:12.653Z,15.78
2022-08-28T03:07:17.104Z,15.96
2022-08-28T03:12:24.243Z,16.16
2022-08-28T03:17:27.346Z,16.06
2022-08-28T03:22:49.852Z,16.00
2022-08-28T03:27:53.194Z,15.84
2022-08-28T03:32:56.087Z,15.91
2022-08-28T03:38:00.266Z,15.99
2022-08-28T03:43:03.248Z,15.97
2022-08-28T03:48:10.201Z,15.93
2022-08-28T03:53:13.427Z,15.89
2022-08-28T03:58:18.915Z,15.91
2022-08-28T04:03:22.814Z,15.89
2022-08-28T04:08:26.471Z,15.85
2022-08-28T04:13:30.421Z,15.68
2022-08-28T04:18:33.788Z,15.56
2022-08-28T04:23:38.434Z,15.49
2022-08-28T04:28:42.389Z,15.45
2022-08-28T04:33:45.852Z,15.47
2022-08-28T04:38:48.807Z,15.52
2022-08-28T04:43:53.049Z,15.63
2022-08-28T04:48:56.660Z,15.85
2022-08-28T04:54:00.588Z,16.08
2022-08-28T04:59:04.490Z,16.31
2022-08-28T05:04:08.435Z,16.70
2022-08-28T05:09:13.524Z,17.03
2022-08-28T05:14:17.476Z,17.30
2022-08-28T05:19:21.340Z,17.60
2022-08-28T05:24:26.644Z,17.83
2022-08-28T05:29:30.263Z,17.93
2022-08-28T05:34:33.466Z,17.89
2022-08-28T05:39:36.392Z,18.03
2022-08-28T05:44:39.834Z,18.10
2022-08-28T05:49:43.788Z,18.42
2022-08-28T05:54:47.356Z,18.91
2022-08-28T05:59:51.490Z,19.48
2022-08-28T06:04:54.829Z,20.22
2022-08-28T06:09:58.409Z,20.88
2022-08-28T06:15:02.201Z,21.39
2022-08-28T06:20:06.114Z,23.21
2022-08-28T06:25:14.358Z,26.49
2022-08-28T06:30:17.802Z,27.04
2022-08-28T06:35:38.596Z,28.18
2022-08-28T06:40:43.647Z,29.38
2022-08-28T06:46:33.494Z,28.98
2022-08-28T06:51:40.677Z,28.95
2022-08-28T06:56:44.567Z,29.39
2022-08-28T07:01:48.156Z,29.68
2022-08-28T07:07:55.902Z,30.03
2022-08-28T07:13:00.614Z,30.28
2022-08-28T07:18:03.627Z,30.68
2022-08-28T07:23:07.945Z,30.63
2022-08-28T07:28:11.585Z,30.38
2022-08-28T07:33:15.271Z,30.51
2022-08-28T07:38:18.693Z,30.60
2022-08-28T07:43:40.629Z,30.73
2022-08-28T07:48:46.069Z,30.83
2022-08-28T07:53:49.380Z,30.59
2022-08-28T07:58:52.520Z,30.51
2022-08-28T08:04:01.257Z,30.95
2022-08-28T08:09:06.832Z,30.74
2022-08-28T08:14:12.220Z,30.43
2022-08-28T08:19:16.629Z,30.38
2022-08-28T08:24:21.230Z,30.90
2022-08-28T08:29:24.950Z,30.77
2022-08-28T08:34:28.818Z,30.93
2022-08-28T08:39:34.272Z,30.64
2022-08-28T08:44:42.164Z,30.66
2022-08-28T08:50:00.829Z,30.71
2022-08-28T08:55:16.030Z,31.13
2022-08-28T09:00:20.990Z,31.56
2022-08-28T09:05:37.908Z,31.90
2022-08-28T09:10:48.552Z,31.37
2022-08-28T09:15:52.497Z,31.37
2022-08-28T09:20:58.886Z,31.68
2022-08-28T09:26:12.607Z,31.32
2022-08-28T09:31:33.582Z,32.12
2022-08-28T09:36:38.917Z,31.72
2022-08-28T09:42:22.252Z,30.76
2022-08-28T09:47:38.487Z,31.75
2022-08-28T09:52:51.486Z,31.68
2022-08-28T09:57:55.633Z,31.99
2022-08-28T10:03:39.981Z,32.09
2022-08-28T10:09:13.550Z,32.94
2022-08-28T10:14:44.272Z,33.78
2022-08-28T10:20:15.824Z,34.70
2022-08-28T10:25:46.634Z,35.52
2022-08-28T10:31:00.838Z,35.48
2022-08-28T10:36:08.857Z,34.93
2022-08-28T10:41:39.219Z,32.50
2022-08-28T10:46:50.031Z,31.74
2022-08-28T10:52:05.444Z,33.50
2022-08-28T10:57:23.947Z,34.16
2022-08-28T11:02:30.321Z,33.84
2022-08-28T11:07:45.749Z,34.38
2022-08-28T11:12:52.032Z,34.74
2022-08-28T11:18:16.499Z,34.41
2022-08-28T11:23:24.589Z,32.01
2022-08-28T11:28:44.993Z,33.19
2022-08-28T11:33:50.982Z,34.00
2022-08-28T11:38:57.889Z,34.07
2022-08-28T11:44:09.805Z,34.14
2022-08-28T11:49:34.453Z,33.59
2022-08-28T11:54:54.112Z,32.65
2022-08-28T12:00:29.113Z,32.76
2022-08-28T12:05:32.537Z,32.00
2022-08-28T12:10:36.133Z,30.79
2022-08-28T12:15:43.120Z,30.31
2022-08-28T12:21:03.559Z,31.49
2022-08-28T12:26:21.219Z,30.65
2022-08-28T12:32:07.233Z,28.56
2022-08-28T12:37:31.365Z,27.02
2022-08-28T12:43:02.728Z,25.83
2022-08-28T12:48:11.504Z,25.59
2022-08-28T12:53:18.455Z,25.64
2022-08-28T12:58:31.538Z,25.41
2022-08-28T13:03:41.572Z,25.04
2022-08-28T13:08:49.258Z,24.58
2022-08-28T13:13:53.585Z,24.61
2022-08-28T13:19:06.664Z,25.07
2022-08-28T13:24:22.237Z,25.58
2022-08-28T13:29:25.664Z,25.83
2022-08-28T13:34:31.041Z,26.14
2022-08-28T13:39:36.557Z,26.24
2022-08-28T13:44:42.449Z,26.24
2022-08-28T13:49:47.611Z,25.92
2022-08-28T13:54:51.989Z,25.66
2022-08-28T13:59:56.025Z,25.50
2022-08-28T14:04:59.511Z,25.27
2022-08-28T14:10:05.082Z,24.94
2022-08-28T14:15:09.439Z,24.83
2022-08-28T14:20:14.722Z,24.75
2022-08-28T14:25:17.828Z,23.75
2022-08-28T14:30:21.342Z,23.35
2022-08-28T14:35:24.732Z,23.42
2022-08-28T14:40:27.898Z,24.11
2022-08-28T14:45:32.028Z,25.49
2022-08-28T14:50:41.210Z,27.03
2022-08-28T14:55:48.674Z,27.52
2022-08-28T15:00:53.033Z,27.65
2022-08-28T15:06:10.076Z,28.15
2022-08-28T15:11:18.898Z,28.36
2022-08-28T15:16:29.907Z,28.53
2022-08-28T15:21:38.620Z,28.31
2022-08-28T15:26:42.287Z,28.26
2022-08-28T15:31:49.533Z,28.53
2022-08-28T15:36:55.988Z,27.96
2022-08-28T15:42:01.626Z,26.13
2022-08-28T15:47:06.782Z,25.28
2022-08-28T15:52:11.300Z,24.62
2022-08-28T15:57:15.242Z,24.56
2022-08-28T16:02:22.488Z,24.46
2022-08-28T16:07:26.235Z,24.31
2022-08-28T16:12:29.947Z,24.31
2022-08-28T16:17:33.483Z,23.94
2022-08-28T16:22:37.556Z,23.49
2022-08-28T16:27:41.620Z,23.17
2022-08-28T16:32:46.846Z,22.79
2022-08-28T16:37:52.126Z,22.58
2022-08-28T16:42:57.968Z,22.48
2022-08-28T16:48:02.370Z,22.58
2022-08-28T16:53:07.142Z,22.69
2022-08-28T16:58:14.969Z,22.71
2022-08-28T17:03:26.487Z,22.69
2022-08-28T17:08:31.019Z,22.52
2022-08-28T17:13:36.414Z,22.32
2022-08-28T17:18:47.507Z,22.21
2022-08-28T17:23:57.432Z,22.11
2022-08-28T17:29:01.655Z,22.26
2022-08-28T17:34:07.843Z,22.27
2022-08-28T17:39:15.505Z,22.22
2022-08-28T17:44:18.855Z,22.11
2022-08-28T17:49:22.903Z,22.02
2022-08-28T17:54:27.129Z,22.00
2022-08-28T17:59:31.021Z,21.89
2022-08-28T18:04:36.695Z,21.62
2022-08-28T18:09:40.973Z,21.34
2022-08-28T18:14:45.495Z,21.18
2022-08-28T18:19:49.411Z,20.98
2022-08-28T18:24:53.513Z,20.79
2022-08-28T18:29:57.703Z,20.54
2022-08-28T18:35:01.909Z,20.40
2022-08-28T18:40:06.271Z,20.26
2022-08-28T18:45:11.011Z,20.06
2022-08-28T18:50:15.911Z,20.17
2022-08-28T18:55:21.046Z,20.20
2022-08-28T19:00:27.612Z,20.20
2022-08-28T19:05:33.611Z,19.95
2022-08-28T19:10:37.854Z,19.87
2022-08-28T19:15:42.363Z,19.70
2022-08-28T19:20:47.136Z,19.58
2022-08-28T19:25:50.803Z,19.51
2022-08-28T19:30:54.728Z,19.47
2022-08-28T19:35:58.345Z,19.35
2022-08-28T19:41:05.754Z,19.36
2022-08-28T19:46:18.423Z,19.41
2022-08-28T19:51:24.662Z,19.52
2022-08-28T19:56:29.451Z,19.62
2022-08-28T20:01:40.036Z,19.64
2022-08-28T20:06:43.728Z,19.54
2022-08-28T20:11:47.641Z,19.51
2022-08-28T20:16:52.869Z,19.36
2022-08-28T20:21:56.818Z,19.32
2022-08-28T20:27:03.544Z,19.08
2022-08-28T20:32:07.746Z,18.95
2022-08-28T20:37:11.596Z,18.84
2022-08-28T20:42:15.699Z,18.60
2022-08-28T20:47:19.086Z,18.55
2022-08-28T20:52:23.550Z,18.44
2022-08-28T20:57:27.507Z,18.44
2022-08-28T21:02:31.480Z,18.62
2022-08-28T21:07:35.610Z,18.79
2022-08-28T21:12:39.673Z,18.93
2022-08-28T21:17:43.549Z,19.03
2022-08-28T21:22:46.842Z,18.98
2022-08-28T21:27:49.946Z,19.07
2022-08-28T21:32:52.973Z,19.08
2022-08-28T21:37:56.612Z,19.09
2022-08-28T21:43:00.548Z,19.05
2022-08-28T21:48:04.673Z,19.03
2022-08-28T21:53:07.668Z,18.87
2022-08-28T21:58:11.683Z,18.68
2022-08-28T22:03:15.851Z,18.49
2022-08-28T22:08:20.911Z,18.46
2022-08-28T22:13:24.458Z,18.46
2022-08-28T22:18:31.980Z,18.43
2022-08-28T22:23:37.902Z,18.42
2022-08-28T22:28:41.384Z,18.37
2022-08-28T22:33:45.698Z,18.45
2022-08-28T22:38:53.225Z,18.42
2022-08-28T22:43:56.617Z,18.29
2022-08-28T22:48:59.723Z,18.29
2022-08-28T22:54:03.293Z,18.25
2022-08-28T22:59:06.691Z,18.02
2022-08-28T23:04:10.960Z,18.23
2022-08-28T23:09:14.005Z,18.22
2022-08-28T23:14:18.676Z,18.20
2022-08-28T23:19:22.746Z,18.12
2022-08-28T23:24:26.792Z,18.05
2022-08-28T23:29:31.080Z,17.91
2022-08-28T23:34:35.198Z,17.73
2022-08-28T23:39:41.391Z,17.64
2022-08-28T23:44:45.687Z,17.49
2022-08-28T23:49:49.457Z,17.38
2022-08-28T23:54:54.451Z,17.42
2022-08-28T23:59:58.061Z,17.39
